Time;durP1;ratioP1;P1;durP2;ratioP2;P2;SDS_P1;SDS_P2;PMS_P1;PMS_P2;Temp;Humidity;BMP_temperature;BMP_pressure;BME280_temperature;BME280_humidity;BME280_pressure;Samples;Min_cycle;Max_cycle;Signal;HPM_P1;HPM_P2
2023/08/28 00:02:20;;;;;;;49.15;40.10;;;11.40;99.90;;;;;;6124305;23;20080;-76
2023/08/28 00:04:45;;;;;;;65.15;44.72;;;11.40;99.90;;;;;;6099119;23;20009;-76
2023/08/28 00:07:12;;;;;;;79.97;43.88;;;11.40;99.90;;;;;;6123940;23;20455;-75
2023/08/28 00:09:39;;;;;;;67.80;39.33;;;11.40;99.90;;;;;;6123761;23;20014;-75
2023/08/28 00:12:05;;;;;;;74.35;41.45;;;11.30;99.90;;;;;;6099447;23;20046;-76
2023/08/28 00:14:31;;;;;;;63.38;38.88;;;11.30;99.90;;;;;;6123603;23;20017;-76
2023/08/28 00:16:57;;;;;;;44.40;36.70;;;11.30;99.90;;;;;;6099474;23;20351;-76
2023/08/28 00:19:23;;;;;;;47.38;33.75;;;11.20;99.90;;;;;;6123986;23;20320;-76
2023/08/28 00:21:49;;;;;;;70.60;39.30;;;11.20;99.90;;;;;;6123977;23;20013;-76
2023/08/28 00:24:14;;;;;;;128.50;57.17;;;11.10;99.90;;;;;;6123721;23;20013;-76
2023/08/28 00:26:40;;;;;;;112.63;48.22;;;11.10;99.90;;;;;;6123482;23;20062;-76
2023/08/28 00:29:06;;;;;;;67.93;42.20;;;11.10;99.90;;;;;;6123699;23;20017;-76
2023/08/28 00:31:31;;;;;;;131.77;44.95;;;11.10;99.90;;;;;;6123693;23;20022;-76
2023/08/28 00:33:57;;;;;;;138.52;47.75;;;11.00;99.90;;;;;;6122905;23;20017;-76
2023/08/28 00:36:22;;;;;;;105.10;48.97;;;11.00;99.90;;;;;;6123489;23;20449;-76
2023/08/28 00:38:48;;;;;;;74.82;40.25;;;10.90;99.90;;;;;;6099134;23;20017;-76
2023/08/28 00:41:13;;;;;;;72.07;40.38;;;10.90;99.90;;;;;;6123859;23;20010;-76
2023/08/28 00:43:39;;;;;;;135.48;48.03;;;10.90;99.90;;;;;;6098943;23;20478;-76
2023/08/28 00:46:06;;;;;;;154.82;53.25;;;10.80;99.90;;;;;;6122898;23;20010;-76
2023/08/28 00:48:32;;;;;;;78.78;44.03;;;10.80;99.90;;;;;;6098482;23;20049;-76
2023/08/28 00:50:59;;;;;;;310.33;70.68;;;10.80;99.90;;;;;;6123742;23;20014;-76
2023/08/28 00:53:24;;;;;;;78.22;51.17;;;10.80;99.90;;;;;;6123833;23;20347;-76
2023/08/28 00:55:50;;;;;;;84.18;50.95;;;10.80;99.90;;;;;;6099023;23;20021;-76
2023/08/28 00:58:16;;;;;;;128.00;59.67;;;10.80;99.90;;;;;;6123354;23;20010;-76
2023/08/28 01:00:42;;;;;;;174.50;60.50;;;10.80;99.90;;;;;;6123250;23;20013;-76
2023/08/28 01:03:09;;;;;;;131.68;46.70;;;10.90;99.90;;;;;;6123748;23;20014;-76
2023/08/28 01:06:01;;;;;;;166.10;51.92;;;10.90;99.90;;;;;;6122848;23;20081;-76
2023/08/28 01:08:34;;;;;;;125.80;52.83;;;10.80;99.90;;;;;;6098937;23;20018;-76
2023/08/28 01:11:23;;;;;;;;;;;10.80;99.90;;;;;;6124050;23;20336;-76
2023/08/28 01:13:58;;;;;;;102.15;50.47;;;10.70;99.90;;;;;;6111914;23;19912;-76
2023/08/28 01:16:27;;;;;;;80.85;45.80;;;10.70;99.90;;;;;;6122468;23;20532;-76
2023/08/28 01:18:53;;;;;;;177.10;61.97;;;10.70;99.90;;;;;;6122075;23;20327;-76
2023/08/28 01:21:20;;;;;;;121.15;50.60;;;10.70;99.90;;;;;;6099007;23;20014;-76
2023/08/28 01:24:08;;;;;;;61.47;45.80;;;10.70;99.90;;;;;;6123261;23;20071;-76
2023/08/28 01:26:34;;;;;;;112.60;53.13;;;10.70;99.90;;;;;;6122614;23;20396;-76
2023/08/28 01:29:00;;;;;;;92.47;56.63;;;10.60;99.90;;;;;;6122990;23;20041;-76
2023/08/28 01:31:25;;;;;;;107.40;58.25;;;10.60;99.90;;;;;;6123178;23;20141;-76
2023/08/28 01:33:53;;;;;;;69.93;47.97;;;10.60;99.90;;;;;;6123432;23;20021;-76
2023/08/28 01:36:36;;;;;;;149.38;57.95;;;10.70;99.90;;;;;;6122452;23;20454;-76
2023/08/28 01:39:08;;;;;;;71.07;50.17;;;10.70;99.90;;;;;;6122202;23;20014;-76
2023/08/28 01:41:35;;;;;;;90.32;58.10;;;10.70;99.90;;;;;;6123344;23;20020;-76
2023/08/28 01:44:02;;;;;;;97.00;56.85;;;10.70;99.90;;;;;;6123294;23;20014;-76
2023/08/28 01:46:28;;;;;;;69.30;53.88;;;10.80;99.90;;;;;;6122927;23;20014;-76
2023/08/28 01:48:54;;;;;;;249.27;81.32;;;10.90;99.90;;;;;;6123045;23;20053;-76
2023/08/28 01:51:23;;;;;;;89.32;56.40;;;10.90;99.90;;;;;;6121989;23;20017;-76
2023/08/28 01:53:49;;;;;;;105.70;59.88;;;10.90;99.90;;;;;;6123177;23;20358;-76
2023/08/28 01:56:21;;;;;;;120.90;66.20;;;11.00;99.90;;;;;;6122644;23;20033;-76
2023/08/28 01:58:55;;;;;;;293.63;90.65;;;11.00;99.90;;;;;;6122746;23;20346;-76
2023/08/28 02:01:22;;;;;;;220.27;84.72;;;11.00;99.90;;;;;;6123046;23;20009;-76
2023/08/28 02:03:48;;;;;;;119.22;62.53;;;11.10;99.90;;;;;;6122768;23;20010;-76
2023/08/28 02:06:14;;;;;;;116.20;59.97;;;11.10;99.90;;;;;;6122809;23;20414;-76
2023/08/28 02:08:40;;;;;;;184.63;72.75;;;11.10;99.90;;;;;;6098470;23;20016;-76
2023/08/28 02:11:06;;;;;;;147.00;61.70;;;11.10;99.90;;;;;;6122920;23;20089;-76
2023/08/28 02:13:31;;;;;;;182.02;66.15;;;11.00;99.90;;;;;;6097854;23;20573;-76
2023/08/28 02:15:57;;;;;;;91.88;54.20;;;11.00;99.90;;;;;;6122243;23;20046;-76
2023/08/28 02:18:23;;;;;;;103.95;56.50;;;10.90;99.90;;;;;;6097969;23;20081;-76
2023/08/28 02:20:49;;;;;;;118.28;59.80;;;10.90;99.90;;;;;;6098623;23;20009;-76
2023/08/28 02:23:14;;;;;;;110.32;61.72;;;10.90;99.90;;;;;;6123033;23;20387;-76
2023/08/28 02:25:45;;;;;;;128.23;61.40;;;10.90;99.90;;;;;;6122175;23;20021;-76
2023/08/28 02:28:11;;;;;;;122.65;63.05;;;10.90;99.90;;;;;;6122705;23;20014;-76
2023/08/28 02:30:37;;;;;;;156.60;61.80;;;11.00;99.90;;;;;;6098501;23;20072;-76
2023/08/28 02:33:03;;;;;;;199.85;66.05;;;10.90;99.90;;;;;;6123071;23;20069;-76
2023/08/28 02:35:29;;;;;;;166.40;57.53;;;10.90;99.90;;;;;;6098259;23;20342;-76
2023/08/28 02:37:54;;;;;;;127.68;55.30;;;10.90;99.90;;;;;;6122414;23;20454;-76
2023/08/28 02:40:20;;;;;;;158.57;60.33;;;10.80;99.90;;;;;;6122382;23;20093;-76
2023/08/28 02:42:45;;;;;;;130.20;59.15;;;10.80;99.90;;;;;;6122897;23;20354;-76
2023/08/28 02:45:11;;;;;;;121.55;56.47;;;10.80;99.90;;;;;;6121411;23;20020;-76
2023/08/28 02:47:36;;;;;;;74.32;53.95;;;10.80;99.90;;;;;;6097847;23;20010;-76
2023/08/28 02:50:04;;;;;;;116.47;61.13;;;10.80;99.90;;;;;;6122823;23;20044;-76
2023/08/28 02:52:29;;;;;;;148.18;70.82;;;10.90;99.90;;;;;;6122092;23;20014;-76
2023/08/28 02:54:55;;;;;;;148.95;65.45;;;11.00;99.90;;;;;;6097449;23;20034;-76
2023/08/28 02:57:21;;;;;;;168.73;73.80;;;11.10;99.90;;;;;;6122085;23;20018;-76
2023/08/28 02:59:47;;;;;;;184.90;72.20;;;11.10;99.90;;;;;;6098500;23;20006;-76
2023/08/28 03:02:12;;;;;;;194.05;67.40;;;11.10;99.90;;;;;;6122858;23;20455;-76
2023/08/28 03:04:39;;;;;;;148.20;64.93;;;11.20;99.90;;;;;;6122446;23;20037;-76
2023/08/28 03:07:04;;;;;;;199.73;65.63;;;11.10;99.90;;;;;;6121826;23;20010;-76
2023/08/28 03:09:32;;;;;;;138.20;55.30;;;11.10;99.90;;;;;;6098566;23;20721;-76
2023/08/28 03:11:57;;;;;;;129.10;52.30;;;11.10;99.90;;;;;;6099936;23;20090;-76
2023/08/28 03:14:23;;;;;;;118.53;52.92;;;11.00;99.90;;;;;;6124315;23;20497;-76
2023/08/28 03:16:49;;;;;;;109.45;52.58;;;11.00;99.90;;;;;;6099789;23;20006;-76
2023/08/28 03:19:14;;;;;;;163.73;64.40;;;11.00;99.90;;;;;;6124388;23;20518;-76
2023/08/28 03:21:40;;;;;;;176.73;69.25;;;10.90;99.90;;;;;;6099679;23;20017;-76
2023/08/28 03:24:06;;;;;;;145.15;61.47;;;10.90;99.90;;;;;;6124544;23;20053;-76
2023/08/28 03:26:32;;;;;;;130.07;61.33;;;10.90;99.90;;;;;;6124555;23;20010;-76
2023/08/28 03:28:57;;;;;;;184.07;68.85;;;11.00;99.90;;;;;;6099471;23;20025;-76
2023/08/28 03:31:23;;;;;;;142.38;61.22;;;11.00;99.90;;;;;;6122473;23;20014;-76
2023/08/28 03:33:48;;;;;;;104.50;52.80;;;10.90;99.90;;;;;;6099909;23;20471;-76
2023/08/28 03:36:14;;;;;;;128.35;51.22;;;10.90;99.90;;;;;;6123395;23;20100;-76
2023/08/28 03:38:40;;;;;;;125.57;51.45;;;10.90;99.90;;;;;;6124062;23;20010;-76
2023/08/28 03:41:06;;;;;;;107.72;49.58;;;10.90;99.90;;;;;;6123615;23;20053;-78
2023/08/28 03:43:32;;;;;;;202.57;69.53;;;11.00;99.90;;;;;;6123946;23;20006;-78
2023/08/28 03:45:57;;;;;;;178.43;61.25;;;10.90;99.90;;;;;;6098069;23;20593;-78
2023/08/28 03:48:23;;;;;;;173.88;57.42;;;10.80;99.90;;;;;;6098120;23;20021;-77
2023/08/28 03:50:48;;;;;;;200.27;62.10;;;10.90;99.90;;;;;;6124212;23;20061;-77
2023/08/28 03:53:14;;;;;;;101.28;49.03;;;10.80;99.90;;;;;;6100101;23;20021;-77
2023/08/28 03:55:40;;;;;;;103.95;48.90;;;10.80;99.90;;;;;;6124365;23;20018;-77
2023/08/28 03:58:05;;;;;;;79.57;48.20;;;10.80;99.90;;;;;;6099079;23;20017;-77
2023/08/28 04:00:34;;;;;;;154.07;60.70;;;10.80;99.90;;;;;;6123948;23;20041;-77
2023/08/28 04:03:00;;;;;;;116.43;43.70;;;10.70;99.90;;;;;;6098018;23;20343;-77
2023/08/28 04:05:28;;;;;;;141.13;52.55;;;10.80;99.90;;;;;;6099250;23;20010;-77
2023/08/28 04:07:54;;;;;;;147.70;48.20;;;10.70;99.90;;;;;;6122980;23;20022;-77
2023/08/28 04:10:20;;;;;;;118.40;41.13;;;10.70;99.90;;;;;;6099466;23;20016;-77
2023/08/28 04:12:45;;;;;;;105.45;40.25;;;10.60;99.90;;;;;;6099561;23;20374;-77
2023/08/28 04:15:11;;;;;;;83.50;36.95;;;10.60;99.90;;;;;;6100040;23;20014;-79
2023/08/28 04:17:37;;;;;;;98.18;39.88;;;10.50;99.90;;;;;;6121153;23;20072;-76
2023/08/28 04:20:12;;;;;;;122.80;47.20;;;10.50;99.90;;;;;;6126093;23;20764;-79
2023/08/28 04:22:43;;;;;;;136.25;55.30;;;10.40;99.90;;;;;;6101097;23;20009;-78
2023/08/28 04:25:09;;;;;;;187.30;62.33;;;10.40;99.90;;;;;;6125419;23;20010;-78
2023/08/28 04:27:35;;;;;;;157.43;59.88;;;10.60;99.90;;;;;;6100623;23;20010;-78
2023/08/28 04:30:01;;;;;;;130.85;54.22;;;10.60;99.90;;;;;;6125162;23;20018;-78
2023/08/28 04:32:26;;;;;;;122.00;50.75;;;10.70;99.90;;;;;;6101713;23;20052;-78
2023/08/28 04:34:52;;;;;;;124.47;54.42;;;10.70;99.90;;;;;;6127045;23;20057;-78
2023/08/28 04:37:17;;;;;;;95.10;48.28;;;10.70;99.90;;;;;;6102391;23;20021;-78
2023/08/28 04:39:43;;;;;;;143.05;59.10;;;10.70;99.90;;;;;;6127023;23;20021;-78
2023/08/28 04:42:10;;;;;;;103.85;50.60;;;10.70;99.90;;;;;;6102492;23;20064;-78
2023/08/28 04:44:35;;;;;;;89.35;51.03;;;10.60;99.90;;;;;;6103404;23;20006;-78
2023/08/28 04:47:02;;;;;;;129.20;49.85;;;10.70;99.90;;;;;;6102295;23;20014;-78
2023/08/28 04:49:27;;;;;;;114.18;51.25;;;10.70;99.90;;;;;;6103175;23;20033;-78
2023/08/28 04:51:53;;;;;;;124.55;49.42;;;10.70;99.90;;;;;;6126596;23;20079;-78
2023/08/28 04:54:19;;;;;;;140.40;53.55;;;10.70;99.90;;;;;;6127636;23;20390;-78
2023/08/28 04:56:45;;;;;;;116.03;51.58;;;10.70;99.90;;;;;;6104070;23;20013;-78
2023/08/28 04:59:11;;;;;;;96.60;53.28;;;10.70;99.90;;;;;;6100455;23;20017;-78
2023/08/28 05:01:36;;;;;;;90.90;53.75;;;10.60;99.90;;;;;;6124740;23;20006;-78
2023/08/28 05:04:02;;;;;;;103.80;57.58;;;10.60;99.90;;;;;;6125927;23;20066;-78
2023/08/28 05:06:28;;;;;;;146.20;61.85;;;10.70;99.90;;;;;;6127476;23;20010;-78
2023/08/28 05:08:54;;;;;;;129.93;57.97;;;10.70;99.90;;;;;;6103323;23;20328;-78
2023/08/28 05:11:20;;;;;;;100.55;56.45;;;10.70;99.90;;;;;;6132836;23;20199;-79
2023/08/28 05:13:45;;;;;;;111.82;57.80;;;10.70;99.90;;;;;;6136936;23;20018;-79
2023/08/28 05:16:11;;;;;;;84.03;50.95;;;10.70;99.90;;;;;;6113252;23;20071;-79
2023/08/28 05:18:37;;;;;;;206.52;75.07;;;10.80;99.90;;;;;;6107266;23;20402;-79
2023/08/28 05:21:03;;;;;;;109.18;58.13;;;10.80;99.90;;;;;;6127078;23;20375;-79
2023/08/28 05:23:28;;;;;;;230.65;78.82;;;10.80;99.90;;;;;;6128019;23;20010;-79
2023/08/28 05:25:55;;;;;;;122.43;59.85;;;10.80;99.90;;;;;;6128594;23;20006;-79
2023/08/28 05:28:21;;;;;;;96.43;52.60;;;10.80;99.90;;;;;;6102338;23;20018;-79
2023/08/28 05:30:47;;;;;;;141.52;56.80;;;10.80;99.90;;;;;;6125070;23;20014;-79
2023/08/28 05:33:12;;;;;;;118.65;53.70;;;10.80;99.90;;;;;;6125926;23;20010;-79
2023/08/28 05:35:41;;;;;;;136.10;54.47;;;10.80;99.90;;;;;;6127422;23;20014;-79
2023/08/28 05:38:06;;;;;;;128.90;57.70;;;10.80;99.90;;;;;;6126827;23;20018;-79
2023/08/28 05:40:32;;;;;;;138.45;57.60;;;10.80;99.90;;;;;;6101298;23;20013;-79
2023/08/28 05:42:58;;;;;;;87.68;48.83;;;10.90;99.90;;;;;;6127679;23;20033;-79
2023/08/28 05:45:24;;;;;;;131.23;60.00;;;10.80;99.90;;;;;;6102112;23;20442;-79
2023/08/28 05:47:49;;;;;;;140.23;67.10;;;10.90;99.90;;;;;;6126458;23;20052;-79
2023/08/28 05:50:18;;;;;;;189.57;72.50;;;11.00;99.90;;;;;;6126109;23;20085;-79
2023/08/28 05:52:44;;;;;;;157.32;68.03;;;11.00;99.90;;;;;;6125041;23;20014;-79
2023/08/28 05:55:09;;;;;;;145.95;65.70;;;11.10;99.90;;;;;;6125673;23;20117;-79
2023/08/28 05:57:35;;;;;;;158.60;65.72;;;11.20;99.90;;;;;;6100904;23;20079;-79
2023/08/28 06:00:01;;;;;;;97.03;62.25;;;11.20;99.90;;;;;;6124485;23;20010;-79
2023/08/28 06:02:27;;;;;;;123.35;69.95;;;11.30;99.90;;;;;;6100339;23;20020;-79
2023/08/28 06:04:52;;;;;;;191.80;82.07;;;11.30;99.90;;;;;;6124560;23;20441;-79
2023/08/28 06:07:18;;;;;;;131.70;72.93;;;11.50;99.90;;;;;;6098351;23;20067;-79
2023/08/28 06:09:44;;;;;;;180.30;74.40;;;11.50;99.90;;;;;;6124703;23;20010;-79
2023/08/28 06:12:10;;;;;;;134.15;70.65;;;11.50;99.90;;;;;;6124429;23;20092;-79
2023/08/28 06:14:36;;;;;;;115.55;66.07;;;11.60;99.90;;;;;;6100174;23;20010;-79
2023/08/28 06:17:03;;;;;;;141.40;71.80;;;11.60;99.90;;;;;;6099241;23;20009;-79
2023/08/28 06:19:29;;;;;;;112.43;68.20;;;11.70;99.90;;;;;;6124893;23;20037;-79
2023/08/28 06:21:55;;;;;;;251.15;87.40;;;11.70;99.90;;;;;;6099770;23;20033;-79
2023/08/28 06:24:20;;;;;;;139.88;73.88;;;11.80;99.90;;;;;;6100529;23;20017;-79
2023/08/28 06:26:46;;;;;;;84.60;62.78;;;11.80;99.90;;;;;;6124646;23;20530;-79
2023/08/28 06:29:12;;;;;;;93.47;65.35;;;11.90;99.90;;;;;;6124231;23;20014;-79
2023/08/28 06:31:37;;;;;;;130.18;69.22;;;11.90;99.90;;;;;;6099114;23;20017;-79
2023/08/28 06:34:03;;;;;;;183.32;74.68;;;12.00;99.90;;;;;;6123997;23;20018;-78
2023/08/28 06:36:28;;;;;;;71.32;57.63;;;12.10;99.90;;;;;;6100284;23;20065;-79
2023/08/28 06:38:54;;;;;;;148.98;74.03;;;12.20;99.90;;;;;;6100650;23;20357;-79
2023/08/28 06:41:20;;;;;;;136.35;67.25;;;12.30;99.90;;;;;;6104081;23;20010;-78
2023/08/28 06:43:48;;;;;;;145.70;74.82;;;12.30;99.90;;;;;;6128861;23;20087;-79
2023/08/28 06:46:13;;;;;;;130.05;68.25;;;12.40;99.90;;;;;;6106659;23;20017;-78
2023/08/28 06:48:39;;;;;;;127.32;71.40;;;12.50;99.90;;;;;;6105905;23;20069;-78
2023/08/28 06:51:05;;;;;;;179.05;82.03;;;12.60;99.90;;;;;;6106340;23;20014;-78
2023/08/28 06:53:30;;;;;;;144.45;76.85;;;12.70;99.90;;;;;;6132657;23;20014;-79
2023/08/28 06:55:57;;;;;;;220.65;82.28;;;12.80;99.90;;;;;;6132531;23;20021;-78
2023/08/28 06:58:23;;;;;;;118.35;69.22;;;12.90;99.90;;;;;;6131262;23;20073;-79
2023/08/28 07:00:48;;;;;;;123.28;70.05;;;12.90;99.90;;;;;;6107167;23;20395;-78
2023/08/28 07:03:14;;;;;;;110.20;65.00;;;13.00;99.90;;;;;;6131471;23;20037;-78
2023/08/28 07:05:40;;;;;;;158.48;72.30;;;13.10;99.90;;;;;;6107080;23;20009;-78
2023/08/28 07:08:05;;;;;;;202.93;80.78;;;13.20;99.90;;;;;;6132043;23;20350;-78
2023/08/28 07:10:32;;;;;;;88.53;58.65;;;13.30;99.90;;;;;;6132220;23;20127;-78
2023/08/28 07:12:57;;;;;;;135.10;69.35;;;13.30;99.90;;;;;;6108935;23;20013;-79
2023/08/28 07:15:29;;;;;;;105.80;62.53;;;13.40;99.90;;;;;;6107905;23;20525;-79
2023/08/28 07:17:54;;;;;;;94.00;58.58;;;13.40;99.90;;;;;;6132342;23;20018;-79
2023/08/28 07:20:21;;;;;;;180.20;71.38;;;13.50;99.90;;;;;;6133953;23;20152;-79
2023/08/28 07:22:47;;;;;;;241.23;78.25;;;13.60;99.90;;;;;;6137595;23;20009;-79
2023/08/28 07:25:12;;;;;;;112.28;61.97;;;13.70;99.90;;;;;;6139151;23;20017;-79
2023/08/28 07:27:38;;;;;;;189.93;71.80;;;13.80;99.90;;;;;;6129323;23;20052;-79
2023/08/28 07:30:04;;;;;;;169.02;68.88;;;13.80;99.90;;;;;;6127137;23;20455;-79
2023/08/28 07:32:32;;;;;;;93.85;60.15;;;13.90;99.90;;;;;;6127678;23;20014;-79
2023/08/28 07:35:00;;;;;;;69.00;45.25;;;14.00;99.90;;;;;;6102378;23;20010;-79
2023/08/28 07:37:29;;;;;;;121.97;60.65;;;14.00;99.90;;;;;;6126190;23;20091;-79
2023/08/28 07:39:55;;;;;;;68.80;47.78;;;14.10;99.90;;;;;;6127357;23;20379;-79
2023/08/28 07:42:21;;;;;;;129.02;63.45;;;14.20;99.90;;;;;;6126998;23;20021;-79
2023/08/28 07:44:47;;;;;;;176.13;65.88;;;14.40;99.90;;;;;;6126881;23;20010;-79
2023/08/28 07:47:13;;;;;;;247.75;74.55;;;14.60;99.90;;;;;;6100831;23;20022;-79
2023/08/28 07:49:41;;;;;;;167.88;68.38;;;14.90;99.90;;;;;;6101346;23;20014;-79
2023/08/28 07:52:07;;;;;;;86.38;54.33;;;15.10;99.90;;;;;;6126416;23;20013;-79
2023/08/28 07:54:33;;;;;;;98.78;52.33;;;15.30;99.90;;;;;;6102506;23;20609;-79
2023/08/28 07:56:58;;;;;;;31.67;28.65;;;15.30;99.90;;;;;;6127037;23;20094;-79
2023/08/28 07:59:24;;;;;;;35.92;32.22;;;15.20;99.90;;;;;;6126298;23;20014;-79
2023/08/28 08:01:49;;;;;;;54.30;42.85;;;15.20;99.90;;;;;;6126580;23;20431;-79
2023/08/28 08:04:15;;;;;;;30.42;27.33;;;15.30;99.90;;;;;;6127334;23;20006;-79
2023/08/28 08:06:40;;;;;;;121.20;49.53;;;15.30;99.90;;;;;;6102718;23;20006;-79
2023/08/28 08:09:06;;;;;;;46.40;34.92;;;15.30;99.90;;;;;;6127724;23;20025;-78
2023/08/28 08:11:32;;;;;;;45.40;35.05;;;15.40;99.90;;;;;;6127690;23;20014;-79
2023/08/28 08:13:58;;;;;;;37.50;33.63;;;15.40;99.90;;;;;;6126287;23;20025;-79
2023/08/28 08:16:24;;;;;;;49.47;36.72;;;15.40;99.90;;;;;;6102358;23;20017;-79
2023/08/28 08:18:49;;;;;;;21.17;19.13;;;15.50;99.90;;;;;;6127429;23;20320;-79
2023/08/28 08:21:15;;;;;;;47.67;36.70;;;15.70;99.90;;;;;;6103390;23;20065;-79
2023/08/28 08:23:41;;;;;;;45.00;38.40;;;15.70;99.90;;;;;;6126720;23;20010;-79
2023/08/28 08:26:08;;;;;;;45.60;36.70;;;15.90;99.90;;;;;;6127182;23;20028;-79
2023/08/28 08:28:34;;;;;;;51.55;32.72;;;16.10;99.90;;;;;;6126707;23;20538;-79
2023/08/28 08:30:59;;;;;;;30.80;23.90;;;16.30;99.90;;;;;;6102788;23;20028;-79
2023/08/28 08:33:25;;;;;;;13.77;10.82;;;16.50;99.90;;;;;;6128082;23;20014;-79
2023/08/28 08:35:51;;;;;;;15.48;13.90;;;16.80;99.90;;;;;;6102585;23;20021;-79
2023/08/28 08:38:17;;;;;;;11.85;10.90;;;17.30;99.90;;;;;;6103367;23;20458;-79
2023/08/28 08:40:43;;;;;;;10.60;7.22;;;17.80;99.90;;;;;;6127141;23;20034;-79
2023/08/28 08:43:09;;;;;;;12.88;9.05;;;18.30;99.90;;;;;;6103646;23;20093;-79
2023/08/28 08:45:41;;;;;;;8.82;7.78;;;18.60;99.90;;;;;;6128015;23;20474;-79
2023/08/28 08:48:10;;;;;;;8.15;7.18;;;18.60;99.90;;;;;;6127458;23;20045;-79
2023/08/28 08:50:37;;;;;;;9.63;5.57;;;18.50;99.90;;;;;;6126607;23;20017;-79
2023/08/28 08:53:09;;;;;;;8.30;6.30;;;18.50;99.90;;;;;;6127084;23;20033;-79
2023/08/28 08:55:37;;;;;;;7.75;6.57;;;18.50;99.90;;;;;;6103167;23;20014;-79
2023/08/28 08:58:06;;;;;;;4.97;3.83;;;18.60;99.90;;;;;;6127451;23;20014;-79
2023/08/28 09:00:38;;;;;;;8.60;6.95;;;18.50;99.90;;;;;;6127834;23;20154;-79
2023/08/28 09:03:05;;;;;;;8.15;4.25;;;18.50;99.90;;;;;;6127861;23;20014;-79
2023/08/28 09:05:32;;;;;;;6.20;3.08;;;18.40;99.90;;;;;;6127894;23;20025;-79
2023/08/28 09:08:01;;;;;;;3.10;1.40;;;18.10;99.90;;;;;;6103029;23;20447;-79
2023/08/28 09:10:26;;;;;;;2.22;1.48;;;17.90;99.90;;;;;;6103166;23;20089;-79
2023/08/28 09:12:53;;;;;;;6.75;3.28;;;17.60;99.90;;;;;;6104096;23;20065;-79
2023/08/28 09:15:20;;;;;;;5.65;1.70;;;17.40;99.90;;;;;;6127759;23;20060;-79
2023/08/28 09:17:45;;;;;;;4.90;2.10;;;17.70;99.90;;;;;;6127075;23;20010;-79
2023/08/28 09:20:19;;;;;;;5.93;3.33;;;18.00;99.90;;;;;;6127703;23;20038;-79
2023/08/28 09:22:50;;;;;;;5.43;3.13;;;18.00;99.90;;;;;;6103957;23;20455;-79
2023/08/28 09:25:17;;;;;;;5.43;3.33;;;17.80;99.90;;;;;;6128137;23;20057;-79
2023/08/28 09:27:44;;;;;;;5.70;3.00;;;17.50;99.90;;;;;;6128200;23;20200;-79
2023/08/28 09:30:25;;;;;;;8.32;5.35;;;17.30;99.90;;;;;;6127844;23;20351;-79
2023/08/28 09:32:51;;;;;;;2.90;1.50;;;17.10;99.90;;;;;;6128218;23;20014;-79
2023/08/28 09:35:19;;;;;;;5.20;1.98;;;17.40;99.90;;;;;;6104459;23;20036;-79
2023/08/28 09:37:54;;;;;;;5.05;2.17;;;18.10;99.90;;;;;;6124332;23;20010;-79
2023/08/28 09:40:29;;;;;;;3.42;1.60;;;18.90;99.90;;;;;;6124027;23;20021;-79
2023/08/28 09:42:55;;;;;;;3.05;1.60;;;19.80;99.90;;;;;;6124574;23;20080;-79
2023/08/28 09:45:21;;;;;;;2.08;1.23;;;20.50;99.90;;;;;;6124183;23;20037;-79
2023/08/28 09:47:53;;;;;;;2.13;1.30;;;21.00;99.90;;;;;;6125019;23;20018;-80
2023/08/28 09:50:32;;;;;;;2.95;1.50;;;21.30;99.90;;;;;;6124977;23;20014;-80
2023/08/28 09:53:15;;;;;;;2.47;1.55;;;21.70;99.90;;;;;;6125158;23;20020;-79
2023/08/28 09:55:50;;;;;;;3.53;0.90;;;22.00;99.90;;;;;;6124876;23;20014;-79
2023/08/28 09:58:16;;;;;;;3.70;0.90;;;22.20;99.90;;;;;;6124322;23;20014;-80
2023/08/28 10:00:42;;;;;;;2.45;1.00;;;22.40;99.90;;;;;;6100523;23;20010;-79
2023/08/28 10:03:10;;;;;;;3.22;0.90;;;22.70;99.90;;;;;;6124856;23;20017;-80
2023/08/28 10:05:38;;;;;;;2.67;0.95;;;22.70;99.90;;;;;;6100645;23;20033;-80
2023/08/28 10:08:07;;;;;;;2.45;1.10;;;22.90;99.90;;;;;;6099715;23;20021;-79
2023/08/28 10:10:38;;;;;;;3.63;1.33;;;23.00;99.90;;;;;;6124328;23;20017;-80
2023/08/28 10:13:06;;;;;;;2.42;1.23;;;23.10;99.90;;;;;;6126043;23;20014;-79
2023/08/28 10:15:34;;;;;;;1.58;1.20;;;23.20;99.90;;;;;;6125845;23;20025;-80
2023/08/28 10:18:06;;;;;;;1.60;1.05;;;23.30;99.90;;;;;;6125667;23;20013;-80
2023/08/28 10:20:34;;;;;;;2.40;1.20;;;23.40;99.90;;;;;;6125028;23;20010;-80
2023/08/28 10:23:01;;;;;;;2.55;0.88;;;23.60;99.90;;;;;;6125726;23;20041;-80
2023/08/28 10:25:30;;;;;;;3.05;0.90;;;23.60;99.90;;;;;;6101536;23;20020;-80
2023/08/28 10:27:57;;;;;;;3.80;1.00;;;23.40;99.90;;;;;;6126040;23;20017;-79
2023/08/28 10:30:26;;;;;;;2.55;0.75;;;22.90;99.90;;;;;;6125934;23;20068;-80
2023/08/28 10:32:54;;;;;;;1.92;0.73;;;22.30;99.90;;;;;;6126097;23;20042;-79
2023/08/28 10:35:21;;;;;;;1.70;0.73;;;22.00;99.90;;;;;;6125325;23;20014;-79
2023/08/28 10:37:49;;;;;;;2.80;0.98;;;21.80;99.90;;;;;;6101387;23;20328;-79
2023/08/28 10:40:17;;;;;;;1.65;0.68;;;21.60;99.90;;;;;;6101332;23;20517;-79
2023/08/28 10:42:44;;;;;;;1.38;0.73;;;21.60;99.90;;;;;;6125505;23;20017;-79
2023/08/28 10:45:10;;;;;;;3.40;1.05;;;21.60;99.90;;;;;;6126929;23;20038;-79
2023/08/28 10:47:37;;;;;;;2.08;0.88;;;21.60;99.90;;;;;;6126418;23;20010;-79
2023/08/28 10:50:05;;;;;;;2.08;0.85;;;21.50;99.90;;;;;;6102171;23;20093;-79
2023/08/28 10:52:31;;;;;;;7.55;1.40;;;21.40;99.90;;;;;;6126742;23;20167;-79
2023/08/28 10:54:59;;;;;;;2.67;1.05;;;21.30;99.90;;;;;;6126802;23;20018;-79
2023/08/28 10:57:28;;;;;;;3.67;0.80;;;21.30;99.90;;;;;;6126551;23;20306;-79
2023/08/28 10:59:55;;;;;;;4.30;1.20;;;21.20;99.90;;;;;;6126965;23;20024;-79
2023/08/28 11:02:21;;;;;;;3.60;1.10;;;21.00;99.90;;;;;;6127293;23;20089;-79
2023/08/28 11:04:47;;;;;;;2.63;1.02;;;21.00;99.90;;;;;;6126112;23;20021;-79
2023/08/28 11:07:22;;;;;;;3.97;1.10;;;20.90;99.90;;;;;;6127280;23;20010;-79
2023/08/28 11:09:50;;;;;;;4.60;1.05;;;20.80;99.90;;;;;;6101430;23;20050;-79
2023/08/28 11:12:19;;;;;;;3.65;1.10;;;20.70;99.90;;;;;;6122128;23;20116;-78
2023/08/28 11:14:51;;;;;;;3.05;0.90;;;20.50;99.90;;;;;;6152577;23;20009;-78
2023/08/28 11:17:18;;;;;;;3.65;0.90;;;20.50;99.90;;;;;;6127726;23;20052;-78
2023/08/28 11:19:56;;;;;;;3.75;1.00;;;20.60;99.90;;;;;;6127752;23;20068;-78
2023/08/28 11:22:28;;;;;;;1.92;1.10;;;20.60;99.90;;;;;;6128004;23;20041;-78
2023/08/28 11:24:54;;;;;;;1.77;1.17;;;20.60;99.90;;;;;;6127384;23;20449;-78
2023/08/28 11:27:46;;;;;;;2.38;1.10;;;20.60;99.90;;;;;;6152038;23;20014;-78
2023/08/28 11:30:14;;;;;;;2.88;1.38;;;20.60;99.90;;;;;;6152775;23;20091;-78
2023/08/28 11:32:43;;;;;;;3.42;1.48;;;20.60;99.90;;;;;;6128666;23;20419;-78
2023/08/28 11:35:10;;;;;;;3.55;1.15;;;20.70;99.90;;;;;;6129426;23;20040;-78
2023/08/28 11:37:39;;;;;;;2.50;1.30;;;20.80;99.90;;;;;;6154080;23;20018;-78
2023/08/28 11:40:06;;;;;;;2.83;1.30;;;21.20;99.90;;;;;;6128629;23;20009;-78
2023/08/28 11:42:33;;;;;;;1.67;1.30;;;21.80;99.90;;;;;;6129242;23;20013;-78
2023/08/28 11:44:59;;;;;;;2.40;1.00;;;22.50;99.90;;;;;;6128752;23;20021;-78
2023/08/28 11:47:26;;;;;;;3.35;1.10;;;23.00;99.90;;;;;;6128662;23;20013;-78
2023/08/28 11:49:53;;;;;;;1.55;0.93;;;23.40;99.90;;;;;;6153991;23;20089;-79
2023/08/28 11:52:19;;;;;;;3.25;1.10;;;23.60;99.90;;;;;;6129704;23;20013;-78
2023/08/28 11:54:44;;;;;;;2.88;1.02;;;23.60;99.90;;;;;;6129726;23;20184;-78
2023/08/28 11:57:11;;;;;;;1.77;0.88;;;23.30;99.90;;;;;;6129019;23;20005;-78
2023/08/28 11:59:37;;;;;;;2.60;0.80;;;23.30;99.90;;;;;;6129700;23;20129;-78
2023/08/28 12:02:04;;;;;;;1.77;0.85;;;23.50;99.90;;;;;;6129156;23;20052;-78
2023/08/28 12:04:36;;;;;;;1.80;0.70;;;23.90;99.90;;;;;;6129525;23;20014;-78
2023/08/28 12:07:05;;;;;;;2.38;0.73;;;24.30;99.90;;;;;;6128837;23;20048;-78
2023/08/28 12:09:32;;;;;;;2.45;0.80;;;24.60;99.90;;;;;;6129230;23;20018;-78
2023/08/28 12:11:59;;;;;;;2.03;0.65;;;25.00;99.90;;;;;;6128731;23;20052;-79
2023/08/28 12:14:27;;;;;;;1.15;0.60;;;25.30;99.90;;;;;;6129031;23;20021;-78
2023/08/28 12:17:00;;;;;;;0.98;0.40;;;25.40;99.90;;;;;;6129471;23;20060;-79
2023/08/28 12:19:26;;;;;;;1.35;0.60;;;25.50;99.90;;;;;;6129261;23;20113;-78
2023/08/28 12:21:52;;;;;;;2.90;0.70;;;25.20;99.90;;;;;;6129420;23;20017;-78
2023/08/28 12:24:17;;;;;;;1.48;0.60;;;24.50;99.90;;;;;;6153486;23;20017;-78
2023/08/28 12:26:44;;;;;;;1.58;0.77;;;23.90;99.90;;;;;;6128548;23;20521;-78
2023/08/28 12:29:09;;;;;;;0.80;0.80;;;23.60;99.90;;;;;;6153241;23;20048;-78